Time;durP1;ratioP1;P1;durP2;ratioP2;P2;SDS_P1;SDS_P2;PMS_P1;PMS_P2;Temp;Humidity;BMP_temperature;BMP_pressure;BME280_temperature;BME280_humidity;BME280_pressure;Samples;Min_cycle;Max_cycle;Signal;HPM_P1;HPM_P2
2022/08/16 00:01:21;;;;;;;21.77;17.33;;;21.60;99.90;;;;;;6241787;23;20393;-74
2022/08/16 00:03:47;;;;;;;18.63;16.67;;;21.90;99.90;;;;;;6241007;23;21053;-74
2022/08/16 00:06:12;;;;;;;19.43;16.37;;;22.20;99.90;;;;;;6240690;23;20394;-74
2022/08/16 00:08:38;;;;;;;20.40;16.30;;;21.80;99.90;;;;;;6240254;23;20369;-75
2022/08/16 00:11:10;;;;;;;17.67;15.70;;;21.80;99.90;;;;;;6216564;23;20373;-75
2022/08/16 00:13:36;;;;;;;18.17;15.93;;;22.00;99.90;;;;;;6241791;23;21447;-74
2022/08/16 00:16:03;;;;;;;18.85;15.55;;;22.10;99.90;;;;;;6241466;23;20377;-74
2022/08/16 00:18:29;;;;;;;19.02;15.98;;;21.60;99.90;;;;;;6239946;23;20734;-75
2022/08/16 00:20:54;;;;;;;17.77;15.23;;;21.90;99.90;;;;;;6240896;23;20354;-75
2022/08/16 00:23:20;;;;;;;20.33;16.37;;;21.90;99.90;;;;;;6243051;22;20358;-74
2022/08/16 00:25:46;;;;;;;19.20;15.93;;;21.90;99.90;;;;;;6239350;23;20676;-75
2022/08/16 00:28:12;;;;;;;19.13;15.63;;;21.90;99.90;;;;;;6240491;23;20373;-75
2022/08/16 00:30:39;;;;;;;20.50;16.15;;;21.90;99.90;;;;;;6243634;23;20419;-75
2022/08/16 00:33:05;;;;;;;18.30;15.90;;;;;;;;;;6243218;23;20851;-75
2022/08/16 00:35:35;;;;;;;17.83;15.40;;;21.90;99.90;;;;;;6243273;23;20372;-75
2022/08/16 00:38:02;;;;;;;22.33;16.23;;;22.00;99.90;;;;;;6243044;22;20750;-78
2022/08/16 00:40:35;;;;;;;17.17;15.37;;;21.80;99.90;;;;;;6243065;23;20390;-77
2022/08/16 00:43:06;;;;;;;18.10;16.20;;;21.70;99.90;;;;;;6243066;23;20842;-77
2022/08/16 00:46:10;;;;;;;20.27;17.93;;;21.90;99.90;;;;;;6243845;23;20365;-76
2022/08/16 00:48:36;;;;;;;20.13;18.08;;;21.50;99.90;;;;;;6241307;22;20370;-76
2022/08/16 00:51:03;;;;;;;20.23;18.13;;;21.60;99.90;;;;;;6243246;23;20424;-75
2022/08/16 00:53:29;;;;;;;23.37;19.20;;;21.40;99.90;;;;;;6243170;23;20370;-76
2022/08/16 00:55:59;;;;;;;21.23;18.98;;;21.10;99.90;;;;;;6243140;23;20370;-76
2022/08/16 00:58:27;;;;;;;21.60;19.30;;;21.30;99.90;;;;;;6240274;23;20396;-76
2022/08/16 01:00:54;;;;;;;21.05;18.85;;;21.30;99.90;;;;;;6217342;23;20469;-75
2022/08/16 01:03:22;;;;;;;21.27;18.80;;;21.70;99.90;;;;;;6243656;23;20394;-77
2022/08/16 01:05:48;;;;;;;21.50;19.20;;;21.60;99.90;;;;;;6218581;23;20419;-76
2022/08/16 01:08:17;;;;;;;21.73;19.38;;;21.40;99.90;;;;;;6241950;23;20365;-76
2022/08/16 01:10:44;;;;;;;23.08;19.27;;;21.20;99.90;;;;;;6243084;23;20444;-75
2022/08/16 01:13:25;;;;;;;21.30;19.10;;;21.10;99.90;;;;;;6243131;23;20370;-75
2022/08/16 01:16:02;;;;;;;21.73;19.25;;;20.90;99.90;;;;;;6242571;23;20670;-75
2022/08/16 01:18:33;;;;;;;21.55;19.35;;;20.80;99.90;;;;;;6240551;23;20381;-76
2022/08/16 01:21:28;;;;;;;21.30;19.23;;;20.80;99.90;;;;;;6243347;23;20398;-76
2022/08/16 01:24:38;;;;;;;22.75;19.48;;;20.90;99.90;;;;;;6228475;23;20902;-75
2022/08/16 01:27:27;;;;;;;21.88;19.60;;;;;;;;;;6097310;23;20471;-74
2022/08/16 01:30:02;;;;;;;21.38;19.17;;;;;;;;;;6072639;23;20405;-74
2022/08/16 01:32:30;;;;;;;26.67;19.75;;;20.60;99.90;;;;;;6202322;23;20408;-74
2022/08/16 01:34:56;;;;;;;21.33;19.00;;;;;;;;;;6217111;23;20366;-74
2022/08/16 01:37:22;;;;;;;21.95;19.65;;;20.50;99.90;;;;;;6241927;23;20908;-74
2022/08/16 01:39:47;;;;;;;22.55;20.15;;;20.70;99.90;;;;;;6240181;23;20461;-74
2022/08/16 01:42:13;;;;;;;22.63;20.30;;;20.80;99.90;;;;;;6243486;23;20366;-75
2022/08/16 01:44:39;;;;;;;23.30;20.92;;;20.60;99.90;;;;;;6242961;23;20362;-75
2022/08/16 01:47:06;;;;;;;26.67;21.80;;;20.30;99.90;;;;;;6242434;23;20373;-75
2022/08/16 01:49:39;;;;;;;24.45;21.85;;;20.80;99.90;;;;;;6233505;22;20413;-74
2022/08/16 01:52:10;;;;;;;23.63;21.23;;;20.50;99.90;;;;;;6241641;23;20358;-74
2022/08/16 01:54:37;;;;;;;24.35;21.80;;;20.40;99.90;;;;;;6217918;23;20401;-74
2022/08/16 01:57:03;;;;;;;26.48;22.05;;;20.30;99.90;;;;;;6242134;23;20367;-74
2022/08/16 01:59:30;;;;;;;25.13;22.42;;;20.40;99.90;;;;;;6241029;23;20390;-74
2022/08/16 02:01:57;;;;;;;25.10;22.48;;;20.60;99.90;;;;;;6242261;23;20373;-74
2022/08/16 02:04:24;;;;;;;28.63;24.55;;;20.40;99.90;;;;;;6242402;23;20370;-75
2022/08/16 02:06:50;;;;;;;26.88;23.98;;;20.40;99.90;;;;;;6241443;23;20879;-75
2022/08/16 02:09:18;;;;;;;31.90;25.57;;;20.40;99.90;;;;;;6243511;22;20892;-75
2022/08/16 02:11:48;;;;;;;28.27;25.05;;;20.40;99.90;;;;;;6242668;23;20373;-75
2022/08/16 02:14:15;;;;;;;31.05;25.67;;;20.30;99.90;;;;;;6242883;23;20393;-75
2022/08/16 02:16:43;;;;;;;34.30;26.38;;;20.20;99.90;;;;;;6242934;23;20369;-75
2022/08/16 02:24:27;;;;;;;31.15;26.02;;;;;;;;;;6179057;22;20414;-75
2022/08/16 02:26:53;;;;;;;32.23;26.93;;;;;;;;;;6167202;23;20476;-76
2022/08/16 02:32:05;;;;;;;33.35;26.67;;;;;;;;;;6214175;22;20395;-75
2022/08/16 02:34:32;;;;;;;34.67;26.83;;;;;;;;;;6212380;23;20429;-73
2022/08/16 02:36:57;;;;;;;30.15;26.23;;;20.40;99.90;;;;;;6211216;23;20387;-73
2022/08/16 02:39:23;;;;;;;30.40;26.73;;;20.30;99.90;;;;;;6187625;23;20387;-72
2022/08/16 02:41:52;;;;;;;31.70;26.02;;;20.00;99.90;;;;;;6186552;23;20692;-73
2022/08/16 02:44:18;;;;;;;29.08;25.95;;;;;;;;;;6213852;23;20402;-76
2022/08/16 02:46:44;;;;;;;30.83;26.33;;;20.30;99.90;;;;;;6212704;23;20367;-78
2022/08/16 02:49:11;;;;;;;28.55;25.48;;;19.90;99.90;;;;;;6212109;23;20364;-78
2022/08/16 02:51:38;;;;;;;29.17;26.02;;;20.40;99.90;;;;;;6212945;23;20372;-78
2022/08/16 02:54:05;;;;;;;29.38;26.23;;;20.00;99.90;;;;;;6189464;23;20394;-78
2022/08/16 02:56:31;;;;;;;29.75;26.65;;;20.20;99.90;;;;;;6216264;23;20450;-78
2022/08/16 02:58:57;;;;;;;28.20;25.20;;;20.00;99.90;;;;;;6216947;23;20418;-78
2022/08/16 03:01:25;;;;;;;28.73;25.63;;;19.80;99.90;;;;;;6213849;23;20371;-77
2022/08/16 03:03:53;;;;;;;30.40;26.27;;;20.70;99.90;;;;;;6187398;23;20370;-77
2022/08/16 03:06:20;;;;;;;27.70;24.85;;;19.90;99.90;;;;;;6187213;23;20364;-78
2022/08/16 03:08:46;;;;;;;28.20;25.15;;;20.30;99.90;;;;;;6210646;23;20375;-78
2022/08/16 03:11:12;;;;;;;27.10;24.00;;;20.10;99.90;;;;;;6211906;23;20455;-77
2022/08/16 03:13:39;;;;;;;26.27;23.57;;;20.40;99.90;;;;;;6212039;23;20454;-77
2022/08/16 03:16:05;;;;;;;26.48;23.42;;;20.00;99.90;;;;;;6187310;23;20367;-77
2022/08/16 03:18:32;;;;;;;25.73;23.02;;;20.20;99.90;;;;;;6209539;23;20375;-77
2022/08/16 03:21:01;;;;;;;25.83;23.02;;;20.00;99.90;;;;;;6186426;23;20840;-77
2022/08/16 03:23:27;;;;;;;24.92;22.42;;;;;;;;;;6211766;23;20374;-78
2022/08/16 03:25:52;;;;;;;25.15;22.45;;;20.00;99.90;;;;;;6211366;23;20368;-78
2022/08/16 03:28:19;;;;;;;26.00;22.17;;;19.90;99.90;;;;;;6185336;23;20917;-77
2022/08/16 03:30:46;;;;;;;27.95;23.25;;;20.10;99.90;;;;;;6155904;23;20452;-77
2022/08/16 03:33:12;;;;;;;25.63;22.80;;;;;;;;;;6157441;23;20683;-77
2022/08/16 03:35:39;;;;;;;26.55;23.63;;;19.90;99.90;;;;;;6156242;23;20385;-77
2022/08/16 03:38:08;;;;;;;26.05;23.05;;;20.30;99.90;;;;;;6181096;23;20366;-77
2022/08/16 03:40:35;;;;;;;27.73;22.45;;;18.10;99.90;;;;;;6155853;23;20396;-77
2022/08/16 03:43:10;;;;;;;25.55;22.85;;;20.30;99.90;;;;;;6132829;23;20365;-77
2022/08/16 03:45:37;;;;;;;25.55;22.75;;;20.00;99.90;;;;;;6131276;23;20755;-77
2022/08/16 03:48:03;;;;;;;26.20;23.27;;;20.20;99.90;;;;;;6132355;23;20404;-77
2022/08/16 03:50:30;;;;;;;26.77;23.02;;;19.80;99.90;;;;;;6155861;23;20369;-77
2022/08/16 03:52:56;;;;;;;27.17;24.27;;;20.20;99.90;;;;;;6131718;23;20839;-78
2022/08/16 03:55:22;;;;;;;26.92;23.13;;;19.80;99.90;;;;;;6156073;23;20377;-77
2022/08/16 03:57:48;;;;;;;26.23;23.42;;;20.00;99.90;;;;;;6156190;23;20369;-77
2022/08/16 04:00:20;;;;;;;27.45;23.73;;;;;;;;;;6155439;23;20393;-77
2022/08/16 04:02:46;;;;;;;25.88;23.17;;;20.00;99.90;;;;;;6156201;23;20457;-76
2022/08/16 04:05:14;;;;;;;27.90;24.13;;;;;;;;;;6131672;23;20369;-77
2022/08/16 04:07:40;;;;;;;27.17;24.27;;;19.70;99.90;;;;;;6155897;23;20373;-77
2022/08/16 04:10:07;;;;;;;30.02;24.23;;;;;;;;;;6130758;23;20423;-78
2022/08/16 04:12:33;;;;;;;27.93;24.23;;;;;;;;;;6156656;23;20459;-77
2022/08/16 04:15:01;;;;;;;27.40;24.13;;;19.60;99.90;;;;;;6131480;23;20369;-77
2022/08/16 04:17:28;;;;;;;28.00;24.92;;;;;;;;;;6131137;23;20373;-77
2022/08/16 04:19:54;;;;;;;28.02;24.85;;;19.50;99.90;;;;;;6156453;23;20420;-77
2022/08/16 04:22:21;;;;;;;33.55;25.92;;;19.60;99.90;;;;;;6155408;23;20455;-78
2022/08/16 04:24:47;;;;;;;37.30;26.40;;;19.70;99.90;;;;;;6153662;23;20448;-78
2022/08/16 04:27:13;;;;;;;37.90;26.17;;;;;;;;;;6156430;23;20432;-78
2022/08/16 04:29:39;;;;;;;30.75;26.90;;;19.20;99.90;;;;;;6155643;23;20452;-78
2022/08/16 04:32:06;;;;;;;32.60;26.63;;;;;;;;;;6170973;23;20893;-78
2022/08/16 04:34:36;;;;;;;31.23;26.95;;;19.70;99.90;;;;;;6180923;23;20369;-78
2022/08/16 04:37:02;;;;;;;30.67;25.30;;;;;;;;;;6181308;23;20373;-78
2022/08/16 04:39:30;;;;;;;34.47;27.30;;;19.30;99.90;;;;;;6179818;23;20393;-78
2022/08/16 04:41:56;;;;;;;33.13;26.35;;;19.30;99.90;;;;;;6181410;23;20365;-79
2022/08/16 04:44:23;;;;;;;37.08;26.27;;;;;;;;;;6156892;23;20694;-78
2022/08/16 04:46:48;;;;;;;33.20;26.23;;;19.30;99.90;;;;;;6181834;23;20369;-78
2022/08/16 04:49:16;;;;;;;37.67;26.30;;;;;;;;;;6155333;23;20444;-79
2022/08/16 04:51:42;;;;;;;33.70;25.63;;;19.00;99.90;;;;;;6155969;23;20834;-77
2022/08/16 04:54:09;;;;;;;33.00;26.83;;;19.10;99.90;;;;;;6179846;23;20373;-77
2022/08/16 04:56:35;;;;;;;34.22;26.00;;;19.10;99.90;;;;;;6181137;23;20380;-77
2022/08/16 04:59:01;;;;;;;30.58;25.35;;;18.90;99.90;;;;;;6180046;23;20393;-76
2022/08/16 05:01:27;;;;;;;29.85;24.83;;;19.10;99.90;;;;;;6179014;23;20872;-76
2022/08/16 05:03:53;;;;;;;33.15;25.08;;;;;;;;;;6155883;23;20452;-75
2022/08/16 05:06:19;;;;;;;27.63;24.00;;;;;;;;;;6180893;23;20468;-75
2022/08/16 05:08:45;;;;;;;29.40;24.17;;;19.00;99.90;;;;;;6181644;23;20898;-75
2022/08/16 05:11:12;;;;;;;28.20;24.92;;;19.30;99.90;;;;;;6155088;23;20396;-76
2022/08/16 05:13:41;;;;;;;28.95;23.58;;;19.30;99.90;;;;;;6180350;23;20762;-76
2022/08/16 05:16:09;;;;;;;27.33;24.35;;;19.50;99.90;;;;;;6157555;23;20365;-75
2022/08/16 05:18:36;;;;;;;35.15;24.20;;;;;;;;;;6158632;23;20365;-75
2022/08/16 05:21:02;;;;;;;28.83;23.27;;;19.20;99.90;;;;;;6181395;23;20369;-76
2022/08/16 05:23:28;;;;;;;27.57;22.77;;;;;;;;;;6181864;23;20453;-75
2022/08/16 05:25:54;;;;;;;26.25;23.52;;;19.10;99.90;;;;;;6156551;23;20448;-77
2022/08/16 05:28:20;;;;;;;26.20;23.47;;;19.30;99.90;;;;;;6157900;23;20397;-76
2022/08/16 05:30:46;;;;;;;26.90;23.40;;;;;;;;;;6156953;23;20398;-77
2022/08/16 05:33:12;;;;;;;30.30;23.38;;;;;;;;;;6132986;23;20452;-76
2022/08/16 05:35:38;;;;;;;27.25;24.00;;;;;;;;;;6182022;23;20373;-76
2022/08/16 05:38:04;;;;;;;27.20;23.70;;;19.30;99.90;;;;;;6157974;23;20373;-77
2022/08/16 05:40:30;;;;;;;28.75;23.88;;;19.50;99.90;;;;;;6133096;23;20413;-76
2022/08/16 05:42:55;;;;;;;27.15;22.73;;;19.60;99.90;;;;;;6156965;23;20366;-76
2022/08/16 05:45:21;;;;;;;31.83;23.37;;;19.60;99.90;;;;;;6131912;23;20373;-76
2022/08/16 05:47:47;;;;;;;26.07;23.27;;;;;;;;;;6156380;23;20369;-76
2022/08/16 05:50:13;;;;;;;27.70;23.87;;;19.40;99.90;;;;;;6157180;23;20859;-77
2022/08/16 05:52:39;;;;;;;25.33;22.73;;;;;;;;;;6156796;23;20428;-76
2022/08/16 05:55:05;;;;;;;26.67;22.97;;;19.40;99.90;;;;;;6132436;23;20452;-76
2022/08/16 05:57:31;;;;;;;25.42;22.85;;;;;;;;;;6156145;23;20735;-75
2022/08/16 05:59:58;;;;;;;26.50;23.40;;;;;;;;;;6157294;23;20400;-75
2022/08/16 06:02:26;;;;;;;26.02;22.63;;;19.70;99.90;;;;;;6155767;23;20524;-74
2022/08/16 06:04:52;;;;;;;25.98;23.27;;;19.60;99.90;;;;;;6156119;23;20461;-74
2022/08/16 06:07:18;;;;;;;25.65;22.83;;;19.50;99.90;;;;;;6182888;23;20361;-75
2022/08/16 06:09:44;;;;;;;25.70;21.98;;;19.60;99.90;;;;;;6133065;23;20373;-74
2022/08/16 06:12:11;;;;;;;27.33;22.30;;;;;;;;;;6157044;23;20380;-74
2022/08/16 06:14:37;;;;;;;24.50;21.67;;;19.90;99.90;;;;;;6154940;23;20373;-74
2022/08/16 06:17:03;;;;;;;24.60;22.10;;;20.00;99.90;;;;;;6157579;23;20377;-75
2022/08/16 06:19:28;;;;;;;27.53;22.27;;;20.10;99.90;;;;;;6132254;23;20477;-75
2022/08/16 06:21:54;;;;;;;25.45;21.10;;;20.30;99.90;;;;;;6157141;23;20392;-74
2022/08/16 06:24:20;;;;;;;26.05;21.15;;;20.30;99.90;;;;;;6154096;23;20372;-75
2022/08/16 06:26:45;;;;;;;26.70;21.53;;;20.50;99.90;;;;;;6154993;23;20445;-74
2022/08/16 06:29:11;;;;;;;23.83;20.60;;;20.80;99.90;;;;;;6132077;23;20851;-74
2022/08/16 06:31:37;;;;;;;24.30;20.48;;;20.70;99.90;;;;;;6116863;23;21270;-75
2022/08/16 06:34:03;;;;;;;23.98;21.33;;;;;;;;;;6130271;23;20372;-75
2022/08/16 06:36:29;;;;;;;23.87;21.27;;;21.00;99.90;;;;;;6181419;23;20374;-75
2022/08/16 06:38:55;;;;;;;23.93;21.13;;;20.80;99.90;;;;;;6180908;23;20404;-74
2022/08/16 06:41:20;;;;;;;27.45;22.13;;;21.00;99.90;;;;;;6182064;23;20361;-74
2022/08/16 06:43:46;;;;;;;24.38;21.77;;;21.00;99.90;;;;;;6182017;23;20365;-74
2022/08/16 06:46:41;;;;;;;26.10;20.73;;;21.20;99.90;;;;;;6155418;23;20373;-75
2022/08/16 06:49:09;;;;;;;22.60;20.20;;;21.50;99.90;;;;;;6169452;23;20592;-75
2022/08/16 06:51:35;;;;;;;23.50;20.60;;;;;;;;;;6155974;23;20668;-74
2022/08/16 06:54:05;;;;;;;25.75;20.65;;;21.90;99.90;;;;;;6156390;23;20443;-74
2022/08/16 06:56:31;;;;;;;24.42;20.02;;;22.10;99.90;;;;;;6180852;23;20376;-74
2022/08/16 06:58:56;;;;;;;22.27;19.87;;;21.80;99.90;;;;;;6180258;23;20465;-74
2022/08/16 07:01:23;;;;;;;25.88;20.88;;;21.80;99.90;;;;;;6181461;23;20377;-75
2022/08/16 07:03:49;;;;;;;22.73;20.33;;;22.10;99.90;;;;;;6155575;23;20526;-75
2022/08/16 07:06:17;;;;;;;26.27;20.33;;;22.60;99.90;;;;;;6181571;23;20384;-75
2022/08/16 07:08:45;;;;;;;24.30;20.92;;;22.20;99.90;;;;;;6205417;23;20476;-75
2022/08/16 07:11:14;;;;;;;23.42;19.88;;;22.40;99.90;;;;;;6206892;23;20897;-76
2022/08/16 07:13:40;;;;;;;25.40;21.55;;;22.60;99.90;;;;;;6180488;23;20381;-75
2022/08/16 07:16:07;;;;;;;22.33;19.50;;;22.30;99.90;;;;;;6156444;23;20361;-75
2022/08/16 07:18:34;;;;;;;22.42;19.73;;;22.80;99.90;;;;;;6157119;23;20889;-75
2022/08/16 07:20:59;;;;;;;27.07;19.53;;;23.00;99.90;;;;;;6180352;23;20443;-76
2022/08/16 07:23:25;;;;;;;23.63;20.13;;;23.20;99.90;;;;;;6179424;23;20369;-74
2022/08/16 07:25:53;;;;;;;23.73;19.47;;;23.20;99.90;;;;;;6205723;23;20839;-75
2022/08/16 07:28:19;;;;;;;22.50;20.10;;;23.10;99.90;;;;;;6180683;23;20369;-75
2022/08/16 07:30:46;;;;;;;21.33;19.05;;;23.60;99.90;;;;;;6155174;23;20451;-75
2022/08/16 07:33:13;;;;;;;25.83;19.48;;;23.50;99.90;;;;;;6155769;23;20432;-74
2022/08/16 07:35:39;;;;;;;22.90;19.65;;;23.60;99.90;;;;;;6131544;23;20377;-74
2022/08/16 07:38:06;;;;;;;21.43;19.20;;;23.60;99.90;;;;;;6155426;23;20876;-75
2022/08/16 07:40:33;;;;;;;20.75;18.60;;;24.30;99.90;;;;;;6155313;23;20910;-75
2022/08/16 07:43:00;;;;;;;21.30;19.10;;;24.00;99.90;;;;;;6130217;23;20370;-75
2022/08/16 07:45:26;;;;;;;21.02;18.30;;;23.90;99.90;;;;;;6155403;23;20365;-75
2022/08/16 07:47:51;;;;;;;19.27;17.27;;;24.30;99.90;;;;;;6107732;23;20661;-75
2022/08/16 07:50:18;;;;;;;19.97;17.77;;;24.40;99.90;;;;;;6130365;23;20377;-75
2022/08/16 07:52:45;;;;;;;20.08;17.20;;;24.50;99.90;;;;;;6155993;23;20370;-75
2022/08/16 07:55:13;;;;;;;18.60;16.70;;;26.90;99.90;;;;;;6155595;23;20435;-75
2022/08/16 07:57:39;;;;;;;18.08;16.08;;;24.40;99.90;;;;;;6157579;23;20369;-76
2022/08/16 08:00:07;;;;;;;19.02;15.80;;;24.50;99.90;;;;;;6156721;23;20686;-76
2022/08/16 08:02:33;;;;;;;17.23;15.43;;;24.70;99.90;;;;;;6155785;23;20372;-76
2022/08/16 08:04:59;;;;;;;18.42;14.80;;;24.80;99.90;;;;;;6156417;23;20436;-76
2022/08/16 08:07:25;;;;;;;16.73;14.65;;;24.90;99.90;;;;;;6157118;23;20451;-76
2022/08/16 08:09:51;;;;;;;17.30;13.77;;;24.90;99.90;;;;;;6155097;23;20373;-75
2022/08/16 08:12:18;;;;;;;15.55;13.48;;;24.80;99.90;;;;;;6155606;23;20369;-76
2022/08/16 08:14:45;;;;;;;15.00;13.45;;;24.90;99.90;;;;;;6132698;23;20373;-76
2022/08/16 08:17:11;;;;;;;15.77;12.77;;;25.10;99.90;;;;;;6132772;23;20376;-76
2022/08/16 08:19:37;;;;;;;13.98;12.15;;;24.80;99.90;;;;;;6130103;23;20389;-76
2022/08/16 08:22:04;;;;;;;14.93;12.48;;;25.00;99.90;;;;;;6132263;23;20365;-76
2022/08/16 08:24:33;;;;;;;15.68;12.77;;;25.10;99.90;;;;;;6156073;23;20831;-76
2022/08/16 08:27:01;;;;;;;16.35;13.02;;;25.20;99.90;;;;;;6109401;23;20405;-75
2022/08/16 08:29:26;;;;;;;15.93;12.70;;;26.20;99.90;;;;;;6131289;23;20710;-75
2022/08/16 08:31:52;;;;;;;15.20;11.80;;;25.60;99.90;;;;;;6169545;23;20476;-75
2022/08/16 08:34:19;;;;;;;14.35;12.27;;;25.80;99.90;;;;;;6156371;23;20452;-76
2022/08/16 08:36:47;;;;;;;14.70;13.02;;;25.90;99.90;;;;;;6157216;23;20377;-75
2022/08/16 08:39:14;;;;;;;16.13;14.00;;;26.00;99.90;;;;;;6177023;23;20396;-76
2022/08/16 08:41:41;;;;;;;18.47;14.73;;;26.00;99.90;;;;;;6155607;23;20373;-75
2022/08/16 08:44:06;;;;;;;18.03;14.73;;;26.10;99.90;;;;;;6180446;23;20432;-75
2022/08/16 08:46:32;;;;;;;16.60;14.80;;;26.10;99.90;;;;;;6156801;23;20376;-74
2022/08/16 08:48:58;;;;;;;18.70;15.60;;;26.30;99.90;;;;;;6154223;23;20369;-75
2022/08/16 08:51:24;;;;;;;16.77;15.00;;;26.40;99.90;;;;;;6183213;23;20369;-75
2022/08/16 08:53:50;;;;;;;18.40;16.30;;;26.50;99.90;;;;;;6159088;23;20376;-75
2022/08/16 08:56:16;;;;;;;17.38;14.55;;;26.40;99.90;;;;;;6158692;23;20396;-75
2022/08/16 08:58:42;;;;;;;17.87;15.97;;;26.90;99.90;;;;;;6132189;23;20369;-76
2022/08/16 09:01:08;;;;;;;19.53;15.27;;;27.00;99.90;;;;;;6183900;23;20537;-75
2022/08/16 09:03:36;;;;;;;18.40;16.40;;;27.00;99.90;;;;;;6160339;23;20369;-76
2022/08/16 09:06:03;;;;;;;17.35;15.60;;;27.10;99.90;;;;;;6184057;23;20463;-76
2022/08/16 09:08:30;;;;;;;20.63;16.88;;;27.20;99.90;;;;;;6181344;23;20417;-75
2022/08/16 09:10:57;;;;;;;18.75;16.75;;;26.70;99.90;;;;;;6186470;23;20369;-74
2022/08/16 09:13:24;;;;;;;18.70;16.65;;;27.20;99.90;;;;;;6184077;23;20404;-74
2022/08/16 09:15:52;;;;;;;19.13;17.13;;;26.90;99.90;;;;;;6157747;23;20738;-76
2022/08/16 09:18:17;;;;;;;17.97;15.97;;;27.20;99.90;;;;;;6157350;23;20447;-76
2022/08/16 09:20:44;;;;;;;17.67;14.82;;;27.10;99.90;;;;;;6184012;23;20397;-76
2022/08/16 09:23:11;;;;;;;17.15;15.00;;;26.90;99.90;;;;;;6182414;23;20366;-76
2022/08/16 09:25:37;;;;;;;18.38;15.07;;;26.90;99.90;;;;;;6179574;23;20373;-76
2022/08/16 09:28:04;;;;;;;16.17;14.27;;;27.30;99.90;;;;;;6182242;23;20369;-76
2022/08/16 09:30:33;;;;;;;16.92;14.82;;;27.50;99.90;;;;;;6156644;23;20377;-76
2022/08/16 09:32:58;;;;;;;18.20;14.88;;;27.30;99.90;;;;;;6130855;23;20377;-76
2022/08/16 09:35:25;;;;;;;16.70;14.90;;;27.80;99.90;;;;;;6131384;23;20427;-76
2022/08/16 09:37:51;;;;;;;17.38;15.10;;;27.30;99.90;;;;;;6157454;23;20373;-76
2022/08/16 09:40:17;;;;;;;18.45;14.90;;;27.20;99.90;;;;;;6156322;23;20870;-77
2022/08/16 09:42:43;;;;;;;17.50;14.80;;;28.10;99.90;;;;;;6132790;23;20365;-77
2022/08/16 09:45:10;;;;;;;16.40;14.80;;;28.00;99.90;;;;;;6156214;23;20918;-76
2022/08/16 09:47:38;;;;;;;16.25;13.15;;;27.90;99.90;;;;;;6132047;23;20369;-76
2022/08/16 09:50:07;;;;;;;15.40;12.23;;;28.20;99.90;;;;;;6157736;23;20393;-76
2022/08/16 09:52:36;;;;;;;14.90;13.20;;;28.40;99.90;;;;;;6157924;23;20374;-77
2022/08/16 09:55:05;;;;;;;16.02;13.73;;;27.80;99.90;;;;;;6155965;23;20376;-77
2022/08/16 09:57:31;;;;;;;15.50;13.88;;;28.30;99.90;;;;;;6156343;23;21197;-78
2022/08/16 09:59:59;;;;;;;16.43;13.13;;;28.30;99.90;;;;;;6157604;23;20397;-76
2022/08/16 10:02:25;;;;;;;14.33;12.67;;;28.10;99.90;;;;;;6156329;23;20380;-77
2022/08/16 10:04:50;;;;;;;13.73;12.17;;;27.90;99.90;;;;;;6131452;23;20369;-77
2022/08/16 10:07:17;;;;;;;15.40;11.77;;;28.40;99.90;;;;;;6132099;23;20377;-78
2022/08/16 10:09:45;;;;;;;14.07;11.77;;;28.60;99.90;;;;;;6108454;23;20920;-78
2022/08/16 10:14:55;;;;;;;13.40;11.05;;;28.80;99.90;;;;;;6154984;23;20870;-77
2022/08/16 10:17:23;;;;;;;14.63;10.40;;;29.00;99.90;;;;;;6155561;23;20377;-77
2022/08/16 10:19:50;;;;;;;15.37;11.13;;;29.20;99.90;;;;;;6156769;23;20477;-76
2022/08/16 10:22:16;;;;;;;15.32;12.02;;;28.90;99.90;;;;;;6132618;23;20366;-77
2022/08/16 10:24:42;;;;;;;12.52;10.23;;;28.80;99.90;;;;;;6131766;23;20376;-77
2022/08/16 10:27:08;;;;;;;14.40;10.60;;;29.20;99.90;;;;;;6154397;23;20689;-77
2022/08/16 10:29:34;;;;;;;12.30;9.32;;;29.10;99.90;;;;;;6156449;23;20911;-78
2022/08/16 10:31:59;;;;;;;10.65;8.82;;;29.60;99.90;;;;;;6170525;23;20400;-78
2022/08/16 10:34:25;;;;;;;12.37;9.30;;;29.50;99.90;;;;;;6182550;23;20835;-77
2022/08/16 10:36:51;;;;;;;10.25;8.38;;;29.20;99.90;;;;;;6180458;23;20871;-77
2022/08/16 10:39:16;;;;;;;9.77;7.87;;;28.90;99.90;;;;;;6157290;23;20395;-78
2022/08/16 10:41:42;;;;;;;11.60;7.97;;;29.40;99.90;;;;;;6156017;23;20823;-78
2022/08/16 10:44:08;;;;;;;10.90;9.13;;;29.10;99.90;;;;;;6180919;23;20365;-78
2022/08/16 10:46:34;;;;;;;10.63;9.20;;;29.60;99.90;;;;;;6181085;23;20373;-78
2022/08/16 10:49:00;;;;;;;14.80;9.83;;;29.90;99.90;;;;;;6181398;23;20374;-78
2022/08/16 10:51:26;;;;;;;10.90;9.10;;;29.60;99.90;;;;;;6182027;23;20380;-78
2022/08/16 10:53:52;;;;;;;12.73;7.82;;;29.20;99.90;;;;;;6180337;23;20380;-77
2022/08/16 10:56:17;;;;;;;12.95;10.75;;;29.80;99.90;;;;;;6156440;23;20464;-77
2022/08/16 10:58:43;;;;;;;10.73;8.93;;;30.00;99.90;;;;;;6155729;23;20860;-77
2022/08/16 11:01:11;;;;;;;12.68;9.00;;;29.80;99.90;;;;;;6126160;23;20373;-77
2022/08/16 11:03:37;;;;;;;13.88;10.00;;;30.00;99.90;;;;;;6154468;23;20369;-74
2022/08/16 11:06:05;;;;;;;11.00;9.80;;;29.70;99.90;;;;;;6156809;23;20393;-74
2022/08/16 11:08:31;;;;;;;12.32;9.23;;;29.50;99.90;;;;;;6177871;23;20411;-75
2022/08/16 11:10:58;;;;;;;14.65;7.85;;;29.70;99.90;;;;;;6181794;23;20453;-73
2022/08/16 11:13:25;;;;;;;12.13;8.15;;;30.00;99.90;;;;;;6155997;23;20460;-75
2022/08/16 11:15:54;;;;;;;9.55;7.80;;;30.10;99.90;;;;;;6177802;23;20376;-74
2022/08/16 11:18:21;;;;;;;10.73;7.55;;;30.00;99.90;;;;;;6180435;23;20839;-75
2022/08/16 11:20:47;;;;;;;8.82;7.00;;;30.40;99.90;;;;;;6182288;23;20381;-75
2022/08/16 11:23:13;;;;;;;12.63;7.80;;;30.20;99.90;;;;;;6180739;23;20735;-75
2022/08/16 11:25:39;;;;;;;12.40;7.57;;;30.50;99.90;;;;;;6178593;23;20444;-76
2022/08/16 11:28:06;;;;;;;12.18;7.90;;;30.00;99.90;;;;;;6181580;23;20428;-75
2022/08/16 11:30:33;;;;;;;10.50;7.57;;;29.80;99.90;;;;;;6181378;23;20384;-75
2022/08/16 11:33:00;;;;;;;10.15;7.05;;;29.70;99.90;;;;;;6132786;23;20382;-73
2022/08/16 11:35:28;;;;;;;9.63;6.35;;;30.10;99.90;;;;;;6154669;23;20397;-75
2022/08/16 11:38:01;;;;;;;11.38;6.57;;;29.90;99.90;;;;;;6156789;23;20376;-75
2022/08/16 11:40:30;;;;;;;10.18;7.30;;;30.10;99.90;;;;;;6156833;23;20430;-75
2022/08/16 11:42:56;;;;;;;9.27;7.43;;;30.20;99.90;;;;;;6156692;23;20696;-75
2022/08/16 11:45:22;;;;;;;10.40;7.23;;;30.40;99.90;;;;;;6131800;23;20409;-75
2022/08/16 11:47:48;;;;;;;11.55;7.05;;;30.10;99.90;;;;;;6131007;23;20373;-75
2022/08/16 11:50:15;;;;;;;8.48;6.30;;;30.10;99.90;;;;;;6129944;23;20366;-75
2022/08/16 11:52:43;;;;;;;10.32;8.18;;;30.30;99.90;;;;;;6155763;23;20389;-75
2022/08/16 11:55:11;;;;;;;12.27;7.70;;;30.30;99.90;;;;;;6131076;23;20431;-74
2022/08/16 11:57:37;;;;;;;10.18;6.90;;;30.60;99.90;;;;;;6152574;23;20377;-74
2022/08/16 12:00:12;;;;;;;11.68;7.90;;;30.30;99.90;;;;;;6156283;23;20393;-75
2022/08/16 12:02:38;;;;;;;11.68;6.43;;;30.30;99.90;;;;;;6155925;23;20380;-75
2022/08/16 12:05:09;;;;;;;11.60;6.90;;;30.50;99.90;;;;;;6155620;23;20433;-75
2022/08/16 12:07:35;;;;;;;9.43;6.55;;;30.40;99.90;;;;;;6154836;23;20372;-76
2022/08/16 12:10:13;;;;;;;10.13;7.20;;;30.70;99.90;;;;;;6181661;23;20366;-75
2022/08/16 12:12:40;;;;;;;15.10;7.23;;;31.10;99.90;;;;;;6181660;23;20696;-75
2022/08/16 12:15:06;;;;;;;10.57;7.35;;;31.00;99.90;;;;;;6156912;23;20385;-75
2022/08/16 12:17:33;;;;;;;12.55;7.70;;;31.00;99.90;;;;;;6153946;23;20377;-76
2022/08/16 12:20:04;;;;;;;10.93;6.38;;;31.10;99.90;;;;;;6154515;23;20425;-76
2022/08/16 12:22:30;;;;;;;8.50;6.88;;;31.30;99.90;;;;;;6156782;23;20448;-76
2022/08/16 12:24:56;;;;;;;10.15;7.00;;;31.40;99.90;;;;;;6108992;23;20404;-76
2022/08/16 12:27:24;;;;;;;8.63;6.80;;;31.30;99.90;;;;;;6158515;23;20384;-76
2022/08/16 12:29:51;;;;;;;11.43;7.18;;;31.40;99.90;;;;;;6184198;23;20834;-75
2022/08/16 12:32:17;;;;;;;10.35;6.43;;;31.40;99.90;;;;;;6174906;23;20389;-76
2022/08/16 12:34:42;;;;;;;9.70;6.32;;;31.20;99.90;;;;;;6158947;23;20384;-75
2022/08/16 12:37:08;;;;;;;7.33;6.27;;;31.10;99.90;;;;;;6181943;23;20740;-76
2022/08/16 12:39:34;;;;;;;11.63;6.10;;;31.20;99.90;;;;;;6181979;23;20392;-75
2022/08/16 12:42:01;;;;;;;7.60;5.30;;;31.30;99.90;;;;;;6182095;23;20452;-76
2022/08/16 12:44:28;;;;;;;8.52;5.65;;;31.10;99.90;;;;;;6182426;23;20384;-73
2022/08/16 12:49:37;;;;;;;10.60;6.10;;;30.40;99.90;;;;;;6181134;23;20744;-76
2022/08/16 12:52:03;;;;;;;10.25;6.88;;;29.90;99.90;;;;;;6178785;23;20373;-73
2022/08/16 12:54:29;;;;;;;8.68;6.40;;;29.80;99.90;;;;;;6157488;23;20373;-74